Time;durP1;ratioP1;P1;durP2;ratioP2;P2;SDS_P1;SDS_P2;PMS_P1;PMS_P2;Temp;Humidity;BMP_temperature;BMP_pressure;BME280_temperature;BME280_humidity;BME280_pressure;Samples;Min_cycle;Max_cycle;Signal;HPM_P1;HPM_P2
2021/07/01 00:01:44;;;;;;;1999.90;999.90;;;;;;;24.92;89.78;95233.78;5110768;28;20223;-67
2021/07/01 00:04:12;;;;;;;1999.90;999.90;;;;;;;24.85;89.88;95221.31;5111114;28;20203;-67
2021/07/01 00:06:39;;;;;;;1999.90;999.90;;;;;;;24.97;89.66;95230.72;5110913;28;20191;-67
2021/07/01 00:09:13;;;;;;;1999.90;999.90;;;;;;;24.90;90.05;95230.78;5110704;28;20203;-67
2021/07/01 00:11:40;;;;;;;1999.90;999.90;;;;;;;24.89;90.41;95227.38;5110569;28;20971;-67
2021/07/01 00:14:09;;;;;;;1999.90;999.90;;;;;;;24.88;91.00;95241.81;5111030;28;20199;-68
2021/07/01 00:16:37;;;;;;;1999.90;999.90;;;;;;;24.78;90.91;95235.38;5110629;28;20206;-67
2021/07/01 00:19:04;;;;;;;1999.90;999.90;;;;;;;24.77;91.16;95225.13;5110928;28;20278;-67
2021/07/01 00:21:32;;;;;;;1999.90;999.90;;;;;;;24.73;91.54;95232.38;5109725;28;20230;-67
2021/07/01 00:23:59;;;;;;;1999.90;999.90;;;;;;;24.68;92.09;95235.47;5110480;28;20198;-67
2021/07/01 00:26:27;;;;;;;1999.90;999.90;;;;;;;24.48;93.60;95232.53;5110469;27;20681;-68
2021/07/01 00:28:54;;;;;;;1999.90;999.90;;;;;;;24.43;93.90;95233.72;5110878;28;20199;-68
2021/07/01 00:31:23;;;;;;;1999.90;999.90;;;;;;;24.43;93.51;95224.97;5110210;28;20231;-68
2021/07/01 00:33:50;;;;;;;1999.90;999.90;;;;;;;24.42;94.10;95228.78;5110536;28;20199;-68
2021/07/01 00:36:17;;;;;;;1999.90;999.90;;;;;;;24.47;93.96;95217.75;5110615;28;20210;-66
2021/07/01 00:38:47;;;;;;;1999.90;999.90;;;;;;;24.49;93.58;95218.13;5110110;28;20199;-67
2021/07/01 00:41:14;;;;;;;1999.90;999.90;;;;;;;24.28;94.80;95219.00;5110126;28;20237;-67
2021/07/01 00:43:41;;;;;;;1999.90;999.90;;;;;;;24.21;94.89;95219.00;5110344;28;20195;-66
2021/07/01 00:46:11;;;;;;;1999.90;999.90;;;;;;;24.12;94.87;95225.88;5110420;28;20203;-67
2021/07/01 00:48:39;;;;;;;1999.90;999.90;;;;;;;23.94;96.03;95224.06;5110439;28;20327;-67
2021/07/01 00:51:06;;;;;;;1999.90;999.90;;;;;;;23.89;95.81;95232.41;5109922;28;20198;-67
2021/07/01 00:53:34;;;;;;;1999.90;999.90;;;;;;;23.90;94.94;95233.94;5110119;28;20196;-67
2021/07/01 00:56:01;;;;;;;1999.90;999.90;;;;;;;23.76;95.29;95225.25;5109770;28;20199;-67
2021/07/01 00:58:29;;;;;;;1999.90;999.90;;;;;;;23.69;95.34;95228.69;5110191;28;20354;-67
2021/07/01 01:01:01;;;;;;;1999.90;999.90;;;;;;;23.49;94.81;95225.69;5109629;28;20290;-66
2021/07/01 01:03:29;;;;;;;1999.90;999.90;;;;;;;23.41;95.04;95229.44;5110443;28;20241;-67
2021/07/01 01:05:58;;;;;;;1999.90;999.90;;;;;;;23.32;96.64;95220.38;5109913;28;20575;-67
2021/07/01 01:08:26;;;;;;;1999.90;999.90;;;;;;;23.31;95.59;95219.66;5109535;28;20201;-67
2021/07/01 01:10:53;;;;;;;1999.90;999.90;;;;;;;23.24;96.05;95224.19;5109659;28;20202;-67
2021/07/01 01:13:27;;;;;;;1999.90;999.90;;;;;;;23.20;95.86;95226.84;5109614;28;20213;-68
2021/07/01 01:15:55;;;;;;;1999.90;999.90;;;;;;;23.21;94.99;95227.63;5109746;28;20286;-67
2021/07/01 01:18:22;;;;;;;1999.90;999.90;;;;;;;23.16;95.48;95226.09;5109726;28;20199;-67
2021/07/01 01:20:51;;;;;;;1999.90;999.90;;;;;;;23.04;96.51;95234.44;5109341;28;20942;-67
2021/07/01 01:23:20;;;;;;;1999.90;999.90;;;;;;;23.10;96.73;95222.31;5109311;28;20590;-67
2021/07/01 01:25:49;;;;;;;1999.90;999.90;;;;;;;22.91;98.48;95231.41;5109153;28;20205;-67
2021/07/01 01:28:17;;;;;;;1999.90;999.90;;;;;;;22.82;98.86;95233.66;5109251;28;20721;-65
2021/07/01 01:30:45;;;;;;;1999.90;999.90;;;;;;;22.70;100.00;95248.03;5109375;28;20586;-67
2021/07/01 01:33:12;;;;;;;1999.90;999.90;;;;;;;22.60;100.00;95224.16;5109570;28;20559;-73
2021/07/01 01:35:41;;;;;;;1999.90;999.90;;;;;;;22.55;100.00;95224.53;5109274;28;20191;-71
2021/07/01 01:38:09;;;;;;;1999.90;999.90;;;;;;;22.44;100.00;95240.38;5109502;28;20209;-65
2021/07/01 01:40:38;;;;;;;1999.90;999.90;;;;;;;22.48;100.00;95232.44;5109045;28;20234;-66
2021/07/01 01:43:06;;;;;;;1999.90;999.90;;;;;;;22.41;100.00;95229.78;5106761;28;20714;-66
2021/07/01 01:45:33;;;;;;;1999.90;999.90;;;;;;;22.42;100.00;95242.63;5108843;28;20589;-65
2021/07/01 01:48:00;;;;;;;1999.90;999.90;;;;;;;22.40;100.00;95238.88;5104324;28;20207;-67
2021/07/01 01:50:27;;;;;;;1999.90;999.90;;;;;;;22.32;100.00;95241.47;5113000;27;20209;-67
2021/07/01 01:52:55;;;;;;;1999.90;999.90;;;;;;;22.36;100.00;95244.16;5109065;28;20202;-67
2021/07/01 01:55:22;;;;;;;1999.90;999.90;;;;;;;22.32;100.00;95240.72;5108659;28;20199;-66
2021/07/01 01:57:52;;;;;;;1999.90;999.90;;;;;;;22.17;100.00;95229.34;5107915;28;20214;-65
2021/07/01 02:00:21;;;;;;;1999.90;999.90;;;;;;;22.04;100.00;95230.81;5107960;28;20277;-66
2021/07/01 02:02:48;;;;;;;1999.90;999.90;;;;;;;22.09;100.00;95235.75;5103416;28;20310;-65
2021/07/01 02:05:16;;;;;;;1999.90;999.90;;;;;;;22.11;100.00;95233.50;5106470;28;20202;-67
2021/07/01 02:07:44;;;;;;;1999.90;999.90;;;;;;;22.12;100.00;95235.00;5107643;27;20282;-67
2021/07/01 02:10:13;;;;;;;1999.90;999.90;;;;;;;22.05;100.00;95237.63;5107839;28;20224;-67
2021/07/01 02:12:41;;;;;;;1999.90;999.90;;;;;;;21.99;100.00;95230.41;5108536;28;20260;-66
2021/07/01 02:15:11;;;;;;;1999.90;999.90;;;;;;;22.00;100.00;95250.44;5108698;28;20686;-67
2021/07/01 02:17:39;;;;;;;1999.90;999.90;;;;;;;21.54;100.00;95252.81;5108562;28;20187;-65
2021/07/01 02:20:09;;;;;;;1999.90;999.90;;;;;;;21.60;100.00;95256.66;5107662;28;20203;-66
2021/07/01 02:22:36;;;;;;;1999.90;999.90;;;;;;;21.44;100.00;95254.28;5108042;28;20229;-65
2021/07/01 02:25:05;;;;;;;1999.90;999.90;;;;;;;21.36;100.00;95253.50;5108677;28;20206;-65
2021/07/01 02:27:32;;;;;;;1999.90;999.90;;;;;;;21.46;100.00;95247.50;5100283;28;20301;-66
2021/07/01 02:30:00;;;;;;;1999.90;999.90;;;;;;;21.39;100.00;95273.88;5092309;28;20210;-66
2021/07/01 02:32:29;;;;;;;1999.90;999.90;;;;;;;21.34;100.00;95265.53;5106308;28;20230;-65
2021/07/01 02:34:56;;;;;;;1999.90;999.90;;;;;;;21.36;100.00;95264.06;5103615;28;20206;-65
2021/07/01 02:37:24;;;;;;;1999.90;999.90;;;;;;;21.40;100.00;95272.00;5108424;28;20195;-64
2021/07/01 02:39:51;;;;;;;1999.90;999.90;;;;;;;21.44;100.00;95265.63;5108395;28;20202;-66
2021/07/01 02:42:18;;;;;;;1999.90;999.90;;;;;;;21.50;100.00;95266.03;5108072;28;20783;-66
2021/07/01 02:44:46;;;;;;;1999.90;999.90;;;;;;;21.52;100.00;95279.63;5108049;28;20203;-67
2021/07/01 02:47:13;;;;;;;1999.90;999.90;;;;;;;21.51;100.00;95280.78;5112286;28;20195;-66
2021/07/01 02:49:42;;;;;;;1999.90;999.90;;;;;;;21.53;100.00;95293.63;5112753;27;20386;-66
2021/07/01 02:52:09;;;;;;;1999.90;999.90;;;;;;;21.46;100.00;95291.69;5112171;28;20203;-66
2021/07/01 02:54:36;;;;;;;1999.90;999.90;;;;;;;21.53;100.00;95294.38;5112235;28;20203;-66
2021/07/01 02:57:03;;;;;;;1999.90;999.90;;;;;;;21.53;100.00;95296.25;5111865;28;20198;-67
2021/07/01 02:59:30;;;;;;;1999.90;999.90;;;;;;;21.49;100.00;95293.59;5112065;28;20199;-66
2021/07/01 03:01:58;;;;;;;1999.90;999.90;;;;;;;21.19;100.00;95295.63;5098202;28;20231;-64
2021/07/01 03:04:25;;;;;;;1999.90;999.90;;;;;;;21.23;100.00;95307.00;5091677;28;20207;-62
2021/07/01 03:06:54;;;;;;;1999.90;999.90;;;;;;;21.26;100.00;95309.69;5091885;28;20195;-65
2021/07/01 03:09:21;;;;;;;1999.90;999.90;;;;;;;21.35;100.00;95310.13;5091817;28;20731;-65
2021/07/01 03:11:48;;;;;;;1999.90;999.90;;;;;;;21.33;100.00;95307.06;5090874;28;20195;-65
2021/07/01 03:14:15;;;;;;;1999.90;999.90;;;;;;;21.35;100.00;95310.13;5091410;28;20235;-66
2021/07/01 03:16:42;;;;;;;1999.90;999.90;;;;;;;21.37;100.00;95302.56;5091269;28;20194;-67
2021/07/01 03:19:10;;;;;;;1999.90;999.90;;;;;;;21.35;100.00;95304.84;5091337;28;20187;-65
2021/07/01 03:21:37;;;;;;;1999.90;999.90;;;;;;;21.40;100.00;95307.16;5102217;28;20624;-66
2021/07/01 03:24:06;;;;;;;1999.90;999.90;;;;;;;21.49;100.00;95314.75;5111786;28;20199;-65
2021/07/01 03:26:33;;;;;;;1999.90;999.90;;;;;;;21.43;100.00;95311.69;5111404;28;20195;-66
2021/07/01 03:29:00;;;;;;;1999.90;999.90;;;;;;;21.41;100.00;95313.94;5111524;28;20201;-67
2021/07/01 03:31:27;;;;;;;1999.90;999.90;;;;;;;21.39;100.00;95316.19;5111271;27;20238;-67
2021/07/01 03:33:54;;;;;;;1999.90;999.90;;;;;;;21.23;100.00;95317.56;5111318;28;20628;-68
2021/07/01 03:36:21;;;;;;;1999.90;999.90;;;;;;;21.37;100.00;95318.44;5113541;28;20222;-67
2021/07/01 03:38:49;;;;;;;1999.90;999.90;;;;;;;21.52;100.00;95319.28;5111547;28;20616;-73
2021/07/01 03:41:17;;;;;;;1999.90;999.90;;;;;;;21.50;100.00;95326.09;5111230;28;20218;-70
2021/07/01 03:43:46;;;;;;;1999.90;999.90;;;;;;;21.40;100.00;95315.06;5113418;27;20220;-68
2021/07/01 03:46:14;;;;;;;1999.90;999.90;;;;;;;21.50;100.00;95315.50;5111313;28;20210;-68
2021/07/01 03:48:42;;;;;;;1999.90;999.90;;;;;;;21.61;100.00;95326.94;5111443;28;20260;-67
2021/07/01 03:51:09;;;;;;;1999.90;999.90;;;;;;;21.67;100.00;95317.53;5110625;28;20578;-67
2021/07/01 03:53:37;;;;;;;1999.90;999.90;;;;;;;21.78;100.00;95320.97;5111029;28;20191;-67
2021/07/01 03:56:04;;;;;;;1999.90;999.90;;;;;;;21.69;100.00;95317.91;5109006;28;20278;-66
2021/07/01 03:58:33;;;;;;;1999.90;999.90;;;;;;;21.76;100.00;95323.25;5103013;28;20238;-67
2021/07/01 04:01:00;;;;;;;1999.90;999.90;;;;;;;21.93;100.00;95314.66;5109036;28;20283;-65
2021/07/01 04:03:27;;;;;;;1999.90;999.90;;;;;;;22.05;100.00;95303.78;5090192;28;20216;-64
2021/07/01 04:05:54;;;;;;;1999.90;999.90;;;;;;;22.16;100.00;95301.19;5087850;28;20557;-65
2021/07/01 04:08:21;;;;;;;1999.90;999.90;;;;;;;22.22;100.00;95297.81;5086790;28;20282;-66
2021/07/01 04:10:48;;;;;;;1999.90;999.90;;;;;;;22.28;100.00;95296.31;5094203;28;20207;-65
2021/07/01 04:13:16;;;;;;;1999.90;999.90;;;;;;;22.24;100.00;95298.19;5107892;28;20689;-66
2021/07/01 04:15:44;;;;;;;1999.90;999.90;;;;;;;22.47;100.00;95305.06;5107847;28;20206;-66
2021/07/01 04:18:13;;;;;;;1999.90;999.90;;;;;;;22.61;100.00;95303.25;5108303;28;20196;-65
2021/07/01 04:20:41;;;;;;;1999.90;999.90;;;;;;;22.69;100.00;95310.06;5108994;28;20202;-65
2021/07/01 04:23:09;;;;;;;1999.90;999.90;;;;;;;22.83;100.00;95309.38;5110322;27;20233;-65
2021/07/01 04:25:37;;;;;;;1999.90;999.90;;;;;;;23.03;99.59;95299.19;5110336;28;20214;-65
2021/07/01 04:28:04;;;;;;;1999.90;999.90;;;;;;;23.23;98.77;95305.63;5110282;28;20758;-65
2021/07/01 04:30:32;;;;;;;1999.90;999.90;;;;;;;23.43;98.20;95314.72;5110278;28;20964;-65
2021/07/01 04:33:00;;;;;;;1999.90;999.90;;;;;;;23.50;96.49;95314.75;5110214;28;20183;-65
2021/07/01 04:35:28;;;;;;;1999.90;999.90;;;;;;;23.99;93.69;95324.53;5110557;27;20234;-65
2021/07/01 04:37:55;;;;;;;1999.90;999.90;;;;;;;24.33;89.54;95326.75;5109306;28;20195;-65
2021/07/01 04:40:22;;;;;;;1999.90;999.90;;;;;;;24.71;86.48;95327.69;5110448;28;20281;-66
2021/07/01 04:42:49;;;;;;;1999.90;999.90;;;;;;;24.88;85.69;95324.22;5110209;28;20715;-66
2021/07/01 04:45:16;;;;;;;1999.90;999.90;;;;;;;24.98;85.75;95326.06;5110067;27;20571;-65
2021/07/01 04:47:44;;;;;;;1999.90;999.90;;;;;;;25.18;86.24;95336.94;5110132;28;20203;-65
2021/07/01 04:50:13;;;;;;;1999.90;999.90;;;;;;;25.37;84.67;95333.00;5110148;28;20286;-65
2021/07/01 04:52:40;;;;;;;1999.90;999.90;;;;;;;25.42;82.82;95341.34;5110015;28;20199;-64
2021/07/01 04:55:08;;;;;;;1999.90;999.90;;;;;;;25.30;83.56;95339.16;5110255;28;20207;-64
2021/07/01 04:57:35;;;;;;;1999.90;999.90;;;;;;;25.24;84.13;95333.50;5109944;28;20230;-65
2021/07/01 05:00:03;;;;;;;1999.90;999.90;;;;;;;25.24;83.44;95335.41;5110225;28;20207;-65
2021/07/01 05:02:31;;;;;;;1999.90;999.90;;;;;;;25.37;82.82;95343.66;5100493;28;20251;-65
2021/07/01 05:04:58;;;;;;;1999.90;999.90;;;;;;;25.50;81.79;95337.47;5106709;28;20589;-65
2021/07/01 05:07:26;;;;;;;1999.90;999.90;;;;;;;25.62;82.90;95334.34;5109582;28;20206;-65
2021/07/01 05:09:53;;;;;;;1999.90;999.90;;;;;;;25.86;82.41;95339.84;5109802;28;20205;-65
2021/07/01 05:12:21;;;;;;;1999.90;999.90;;;;;;;26.15;79.79;95338.44;5109800;28;20664;-65
2021/07/01 05:14:48;;;;;;;1999.90;999.90;;;;;;;26.34;78.89;95340.53;5109618;28;20200;-64
2021/07/01 05:17:15;;;;;;;1999.90;999.90;;;;;;;26.41;78.72;95337.75;5110081;28;20287;-64
2021/07/01 05:19:42;;;;;;;1999.90;999.90;;;;;;;26.62;77.49;95328.75;5109572;28;20195;-65
2021/07/01 05:22:09;;;;;;;1999.90;999.90;;;;;;;26.65;77.97;95332.53;5109382;28;20225;-64
2021/07/01 05:24:38;;;;;;;1999.90;999.90;;;;;;;26.73;77.91;95329.38;5109340;28;20199;-66
2021/07/01 05:27:05;;;;;;;1999.90;999.90;;;;;;;26.99;76.61;95335.91;5109742;28;20844;-64
2021/07/01 05:29:32;;;;;;;1999.90;999.90;;;;;;;27.10;75.95;95330.44;5109844;28;20594;-65
2021/07/01 05:31:59;;;;;;;1999.90;999.90;;;;;;;27.16;75.35;95328.78;5109433;28;20231;-65
2021/07/01 05:34:26;;;;;;;1999.90;999.90;;;;;;;27.10;76.49;95331.16;5109649;28;20208;-65
2021/07/01 05:36:54;;;;;;;1999.90;999.90;;;;;;;27.17;76.56;95331.06;5109315;28;20199;-65
2021/07/01 05:39:21;;;;;;;1999.90;999.90;;;;;;;27.25;76.07;95334.38;5111895;27;20198;-64
2021/07/01 05:41:50;;;;;;;1999.90;999.90;;;;;;;27.08;76.17;95332.75;5109531;28;20637;-65
2021/07/01 05:44:17;;;;;;;1999.90;999.90;;;;;;;26.96;76.75;95334.03;5109245;28;20223;-65
2021/07/01 05:46:44;;;;;;;1999.90;999.90;;;;;;;27.02;77.48;95326.34;5109290;28;20201;-64
2021/07/01 05:49:12;;;;;;;1999.90;999.90;;;;;;;27.16;76.64;95321.56;5109256;28;20236;-65
2021/07/01 05:51:44;;;;;;;1999.90;999.90;;;;;;;27.26;76.49;95323.31;5109150;28;20327;-65
2021/07/01 05:54:15;;;;;;;1999.90;999.90;;;;;;;27.41;76.27;95327.25;5109186;28;20195;-65
2021/07/01 05:56:42;;;;;;;1999.90;999.90;;;;;;;27.50;77.63;95326.75;5109157;28;20205;-65
2021/07/01 05:59:11;;;;;;;1999.90;999.90;;;;;;;27.68;76.32;95321.91;5108946;28;20203;-65
2021/07/01 06:01:39;;;;;;;1999.90;999.90;;;;;;;27.62;77.41;95326.19;5109202;28;20218;-65
2021/07/01 06:04:08;;;;;;;1999.90;999.90;;;;;;;27.65;78.59;95316.59;5109037;28;20258;-65
2021/07/01 06:06:36;;;;;;;1999.90;999.90;;;;;;;27.79;78.03;95311.78;5108952;28;20588;-65
2021/07/01 06:09:05;;;;;;;1999.90;999.90;;;;;;;28.12;75.14;95310.06;5109293;28;20207;-65
2021/07/01 06:11:34;;;;;;;1999.90;999.90;;;;;;;28.10;76.61;95309.69;5108889;28;20291;-65
2021/07/01 06:14:05;;;;;;;1999.90;999.90;;;;;;;28.32;76.93;95311.97;5108914;28;20191;-65
2021/07/01 06:16:35;;;;;;;1999.90;999.90;;;;;;;28.53;74.12;95314.22;5109081;28;20648;-64
2021/07/01 06:19:04;;;;;;;1999.90;999.90;;;;;;;28.59;74.56;95309.91;5108955;28;20191;-65
2021/07/01 06:21:32;;;;;;;1999.90;999.90;;;;;;;28.63;73.57;95311.34;5113096;28;20195;-66
2021/07/01 06:23:59;;;;;;;1999.90;999.90;;;;;;;28.75;74.23;95309.97;5112970;28;20276;-65
2021/07/01 06:26:28;;;;;;;1999.90;999.90;;;;;;;28.93;73.19;95309.59;5113106;28;20194;-64
2021/07/01 06:28:55;;;;;;;1999.90;999.90;;;;;;;28.94;71.97;95317.19;5113377;28;20646;-64
2021/07/01 06:31:23;;;;;;;1999.90;999.90;;;;;;;28.98;71.84;95312.53;5112816;28;20273;-65
2021/07/01 06:33:52;;;;;;;1999.90;999.90;;;;;;;28.92;72.61;95316.09;5112842;28;20198;-65
2021/07/01 06:36:20;;;;;;;1999.90;999.90;;;;;;;29.01;71.81;95311.69;5113134;28;20204;-65
2021/07/01 06:38:50;;;;;;;1999.90;999.90;;;;;;;29.09;72.27;95309.63;5112974;28;20198;-65
2021/07/01 06:41:18;;;;;;;1999.90;999.90;;;;;;;29.30;72.28;95308.34;5112541;28;20277;-64
2021/07/01 06:43:48;;;;;;;1999.90;999.90;;;;;;;29.43;70.90;95311.91;5112629;28;20219;-64
2021/07/01 06:46:15;;;;;;;1999.90;999.90;;;;;;;29.52;72.98;95301.34;5112536;28;20578;-65
2021/07/01 06:48:44;;;;;;;1999.90;999.90;;;;;;;29.55;72.23;95305.09;5112575;28;20203;-65
2021/07/01 06:51:13;;;;;;;1999.90;999.90;;;;;;;29.68;74.77;95306.69;5112505;28;20206;-65
2021/07/01 06:53:42;;;;;;;1999.90;999.90;;;;;;;29.95;71.85;95301.03;5112779;28;20573;-65
2021/07/01 06:56:13;;;;;;;1999.90;999.90;;;;;;;30.11;70.19;95305.59;5112709;28;20274;-65
2021/07/01 06:58:42;;;;;;;1999.90;999.90;;;;;;;30.17;70.49;95296.63;5112418;28;20227;-65
2021/07/01 07:01:09;;;;;;;1999.90;999.90;;;;;;;30.48;68.03;95296.94;5112353;28;20214;-64
2021/07/01 07:03:37;;;;;;;1999.90;999.90;;;;;;;30.55;67.35;95302.06;5112227;28;20229;-64
2021/07/01 07:06:06;;;;;;;1999.90;999.90;;;;;;;30.73;65.82;95293.53;5112378;28;20202;-67
2021/07/01 07:08:34;;;;;;;1999.90;999.90;;;;;;;30.78;66.43;95291.03;5112806;28;20249;-65
2021/07/01 07:11:01;;;;;;;1999.90;999.90;;;;;;;30.71;65.30;95291.25;5112417;28;20698;-65
2021/07/01 07:13:28;;;;;;;1999.90;999.90;;;;;;;30.75;66.67;95289.22;5112141;28;20203;-65
2021/07/01 07:15:59;;;;;;;1999.90;999.90;;;;;;;30.40;67.42;95282.16;5112106;28;20199;-64
2021/07/01 07:18:30;;;;;;;1999.90;999.90;;;;;;;30.70;66.16;95289.00;5111934;28;20226;-64
2021/07/01 07:20:59;;;;;;;1999.90;999.90;;;;;;;31.06;63.10;95277.97;5111872;28;20248;-63
2021/07/01 07:23:31;;;;;;;1999.90;999.90;;;;;;;30.89;64.25;95279.97;5111998;28;20706;-64
2021/07/01 07:26:01;;;;;;;1999.90;999.90;;;;;;;30.92;64.41;95283.75;5112176;28;20917;-64
2021/07/01 07:28:28;;;;;;;1999.90;999.90;;;;;;;31.15;63.41;95272.69;5111698;28;20183;-64
2021/07/01 07:30:57;;;;;;;1999.90;999.90;;;;;;;31.32;62.69;95273.31;5111541;28;20238;-64
2021/07/01 07:33:26;;;;;;;1999.90;999.90;;;;;;;31.25;62.50;95278.91;5111603;28;20256;-65
2021/07/01 07:35:54;;;;;;;1999.90;999.90;;;;;;;31.14;62.48;95265.81;5111947;27;20260;-64
2021/07/01 07:38:22;;;;;;;1999.90;999.90;;;;;;;31.35;62.69;95270.50;5111541;28;20568;-64
2021/07/01 07:40:52;;;;;;;1999.90;999.90;;;;;;;31.74;60.23;95274.59;5111775;28;20252;-64
2021/07/01 07:43:21;;;;;;;1999.90;999.90;;;;;;;31.83;59.74;95269.31;5111385;28;20223;-64
2021/07/01 07:45:50;;;;;;;1999.90;999.90;;;;;;;32.04;59.46;95268.56;5111600;28;20206;-65
2021/07/01 07:48:17;;;;;;;1999.90;999.90;;;;;;;31.87;58.79;95267.25;5111292;28;20203;-64
2021/07/01 07:50:50;;;;;;;1999.90;999.90;;;;;;;32.13;59.08;95264.47;5129375;27;20195;-64
2021/07/01 07:53:21;;;;;;;1999.90;999.90;;;;;;;32.24;57.80;95264.84;5131832;27;20243;-65
2021/07/01 07:55:54;;;;;;;1999.90;999.90;;;;;;;32.25;53.31;95255.56;5132114;27;20187;-64
2021/07/01 07:58:25;;;;;;;1999.90;999.90;;;;;;;32.25;51.89;95259.03;5131751;27;20719;-65
2021/07/01 08:00:52;;;;;;;1999.90;999.90;;;;;;;32.11;52.11;95254.16;5132109;27;20179;-64
2021/07/01 08:03:20;;;;;;;1999.90;999.90;;;;;;;32.31;50.67;95256.50;5131846;27;21085;-64
2021/07/01 08:05:48;;;;;;;1999.90;999.90;;;;;;;32.04;52.47;95252.44;5131711;27;20198;-64
2021/07/01 08:08:16;;;;;;;1999.90;999.90;;;;;;;32.60;50.08;95245.44;5131730;27;20206;-64
2021/07/01 08:10:45;;;;;;;1999.90;999.90;;;;;;;32.44;53.26;95247.16;5131530;27;20213;-64
2021/07/01 08:13:12;;;;;;;1999.90;999.90;;;;;;;32.17;53.30;95248.97;5131667;27;20198;-63
2021/07/01 08:15:42;;;;;;;1999.90;999.90;;;;;;;32.51;52.99;95246.16;5131727;27;20207;-64
2021/07/01 08:18:20;;;;;;;1999.90;999.90;;;;;;;32.77;49.33;95246.75;5131458;27;20634;-63
2021/07/01 08:20:47;;;;;;;1999.90;999.90;;;;;;;32.71;49.86;95237.75;5127182;27;20195;-63
2021/07/01 08:23:14;;;;;;;1999.90;999.90;;;;;;;32.73;49.58;95241.47;5111028;28;20199;-64
2021/07/01 08:25:43;;;;;;;1999.90;999.90;;;;;;;32.73;48.09;95248.81;5110879;28;20200;-63
2021/07/01 08:28:11;;;;;;;1999.90;999.90;;;;;;;32.76;45.59;95237.16;5110569;28;20687;-64
2021/07/01 08:30:40;;;;;;;1999.90;999.90;;;;;;;32.69;47.89;95242.81;5110517;28;20195;-64
2021/07/01 08:33:08;;;;;;;1999.90;999.90;;;;;;;32.89;45.10;95237.78;5110523;28;20202;-64
2021/07/01 08:35:36;;;;;;;1999.90;999.90;;;;;;;32.99;43.34;95233.19;5110789;27;20701;-64
2021/07/01 08:38:05;;;;;;;1999.90;999.90;;;;;;;33.02;36.96;95235.00;5110512;28;20526;-63
2021/07/01 08:40:34;;;;;;;1999.90;999.90;;;;;;;32.87;37.84;95232.13;5110792;28;20221;-65
2021/07/01 08:43:03;;;;;;;1999.90;999.90;;;;;;;32.88;38.06;95225.53;5110018;28;20552;-65
2021/07/01 08:45:43;;;;;;;1999.90;999.90;;;;;;;32.99;38.35;95220.47;5110321;28;20226;-62
2021/07/01 08:48:22;;;;;;;1999.90;999.90;;;;;;;32.90;40.31;95223.13;5110638;28;20186;-64
2021/07/01 08:50:54;;;;;;;1999.90;999.90;;;;;;;33.04;38.21;95217.19;5110310;28;20213;-65
2021/07/01 08:53:53;;;;;;;1999.90;999.90;;;;;;;33.12;37.95;95218.41;5110749;28;20240;-65
2021/07/01 08:56:22;;;;;;;1999.90;999.90;;;;;;;33.54;37.32;95210.53;5110596;28;20195;-65
2021/07/01 08:58:49;;;;;;;1999.90;999.90;;;;;;;33.60;32.59;95218.78;5110017;28;20187;-64
2021/07/01 09:01:20;;;;;;;1999.90;999.90;;;;;;;33.68;32.90;95214.59;5110046;28;20206;-65
2021/07/01 09:03:50;;;;;;;1999.90;999.90;;;;;;;33.90;36.42;95209.78;5109951;28;20306;-65
2021/07/01 09:06:23;;;;;;;1999.90;999.90;;;;;;;34.13;35.24;95206.44;5109975;28;20194;-64
2021/07/01 09:08:52;;;;;;;1999.90;999.90;;;;;;;34.19;32.32;95205.84;5109952;28;20197;-64
2021/07/01 09:11:21;;;;;;;1999.90;999.90;;;;;;;34.10;32.19;95215.44;5110129;27;20191;-64
2021/07/01 09:13:50;;;;;;;1999.90;999.90;;;;;;;34.06;32.86;95206.03;5109824;28;20729;-64
2021/07/01 09:16:20;;;;;;;1999.90;999.90;;;;;;;33.87;32.25;95202.63;5109781;28;20206;-62
2021/07/01 09:18:47;;;;;;;1999.90;999.90;;;;;;;34.08;33.48;95198.97;5109778;28;20765;-64
2021/07/01 09:21:15;;;;;;;1999.90;999.90;;;;;;;34.40;33.92;95196.81;5109257;28;20675;-64
2021/07/01 09:23:45;;;;;;;1999.90;999.90;;;;;;;34.69;30.41;95194.31;5109551;28;20605;-64
2021/07/01 09:26:20;;;;;;;1999.90;999.90;;;;;;;34.53;30.54;95195.38;5109706;28;20191;-63
2021/07/01 09:28:48;;;;;;;1999.90;999.90;;;;;;;34.66;30.45;95197.91;5109291;28;20218;-65
2021/07/01 09:31:19;;;;;;;1999.90;999.90;;;;;;;34.66;29.08;95192.50;5109560;28;20227;-63
2021/07/01 09:33:49;;;;;;;1999.90;999.90;;;;;;;34.75;30.64;95184.38;5109449;28;20193;-64
2021/07/01 09:36:19;;;;;;;1999.90;999.90;;;;;;;34.74;30.35;95182.88;5109706;27;20202;-63
2021/07/01 09:38:48;;;;;;;1999.90;999.90;;;;;;;34.85;30.35;95176.97;5109984;28;20195;-64
2021/07/01 09:41:15;;;;;;;1999.90;999.90;;;;;;;35.05;29.36;95173.69;5109556;28;20263;-63
2021/07/01 09:43:47;;;;;;;1999.90;999.90;;;;;;;34.89;30.69;95172.88;5109351;28;20285;-64
2021/07/01 09:46:19;;;;;;;1999.90;999.90;;;;;;;34.88;30.96;95176.78;5111782;27;20634;-64
2021/07/01 09:48:50;;;;;;;1999.90;999.90;;;;;;;35.06;28.86;95164.38;5109191;28;20248;-63
2021/07/01 09:51:18;;;;;;;1999.90;999.90;;;;;;;35.09;30.17;95166.16;5109127;28;20196;-64
2021/07/01 09:53:50;;;;;;;1999.90;999.90;;;;;;;35.10;27.21;95164.94;5108669;28;20598;-64
2021/07/01 09:56:36;;;;;;;1999.90;999.90;;;;;;;35.24;30.83;95156.16;5108808;28;20219;-63
2021/07/01 09:59:05;;;;;;;1999.90;999.90;;;;;;;35.33;29.49;95153.38;5109261;28;20237;-64
2021/07/01 10:01:37;;;;;;;1999.90;999.90;;;;;;;35.20;29.81;95147.50;5109247;28;20206;-64
2021/07/01 10:04:07;;;;;;;1999.90;999.90;;;;;;;35.50;30.38;95148.28;5109372;28;20199;-64
2021/07/01 10:06:34;;;;;;;1999.90;999.90;;;;;;;35.35;30.31;95140.16;5109282;28;20243;-64
2021/07/01 10:09:02;;;;;;;1999.90;999.90;;;;;;;35.00;29.50;95142.66;5109606;28;20203;-64
2021/07/01 10:11:35;;;;;;;1999.90;999.90;;;;;;;35.46;30.24;95139.63;5109609;28;20271;-64
2021/07/01 10:14:06;;;;;;;1999.90;999.90;;;;;;;35.26;31.17;95137.53;5109757;28;20195;-64
2021/07/01 10:16:35;;;;;;;1999.90;999.90;;;;;;;35.59;30.50;95130.03;5109442;28;20218;-64
2021/07/01 10:19:03;;;;;;;1999.90;999.90;;;;;;;35.73;30.92;95132.03;5109221;28;20201;-64
2021/07/01 10:21:33;;;;;;;1999.90;999.90;;;;;;;35.90;27.89;95126.16;5108913;28;20195;-64
2021/07/01 10:24:12;;;;;;;1999.90;999.90;;;;;;;35.93;27.60;95125.19;5108959;28;20210;-64
2021/07/01 10:26:41;;;;;;;1999.90;999.90;;;;;;;35.89;29.98;95121.94;5109190;28;20694;-64
2021/07/01 10:29:09;;;;;;;1999.90;999.90;;;;;;;35.49;29.31;95117.06;5108836;28;20195;-64
2021/07/01 10:31:56;;;;;;;1999.90;999.90;;;;;;;35.41;29.03;95116.69;5108978;28;20311;-63
2021/07/01 10:34:25;;;;;;;1999.90;999.90;;;;;;;35.51;28.89;95115.41;5109022;28;20274;-64
2021/07/01 10:37:12;;;;;;;1999.90;999.90;;;;;;;35.46;28.11;95105.22;5109123;28;20217;-64
2021/07/01 10:39:40;;;;;;;1999.90;999.90;;;;;;;35.36;28.24;95101.88;5109052;28;20195;-63
2021/07/01 10:42:07;;;;;;;1999.90;999.90;;;;;;;35.63;31.13;95092.72;5109084;28;20621;-64
2021/07/01 10:44:35;;;;;;;1999.90;999.90;;;;;;;35.96;28.33;95097.22;5108614;28;20287;-64
2021/07/01 10:47:03;;;;;;;1999.90;999.90;;;;;;;35.99;28.01;95085.47;5109100;28;20195;-64
2021/07/01 10:49:34;;;;;;;1999.90;999.90;;;;;;;36.12;28.91;95081.22;5108575;28;20667;-64
2021/07/01 10:52:04;;;;;;;1999.90;999.90;;;;;;;35.94;29.94;95075.28;5108737;28;20214;-64
2021/07/01 10:54:32;;;;;;;1999.90;999.90;;;;;;;36.04;30.53;95076.69;5109213;28;20199;-64
2021/07/01 10:57:08;;;;;;;1999.90;999.90;;;;;;;36.24;30.75;95068.63;5108924;28;20644;-63
2021/07/01 10:59:49;;;;;;;1999.90;999.90;;;;;;;36.47;29.21;95070.41;5109115;28;20198;-64